Aviation Digital Data Service (ADDS)

Output produced by METARs form (1112 UTC 24 January 2021)
found at http://www.aviationweather.gov/metar/data/
 
METAR text: ZGSZ 241100Z 12006MPS CAVOK 20/12 Q1015 NOSIG
Conditions at: ZGSZ (SHENZHEN , CN) observed 1100 UTC 24 January 2021
Temperature: 20.0°C (68°F)
Dewpoint: 12.0°C (54°F) [RH = 60%]
Pressure (altimeter): 29.97 inches Hg (1015.0 mb)
Winds: from the ESE (120 degrees) at 14 MPH (12 knots; 6.2 m/s)
Visibility: 6 or more miles (10+ km)
Ceiling: ceiling and visibility are OK
Clouds: unknown
Weather: no significant weather observed at this time

METAR text: ZGSZ 241000Z 12006MPS CAVOK 21/13 Q1015 NOSIG
Conditions at: ZGSZ (SHENZHEN , CN) observed 1000 UTC 24 January 2021
Temperature: 21.0°C (70°F)
Dewpoint: 13.0°C (55°F) [RH = 60%]
Pressure (altimeter): 29.97 inches Hg (1015.0 mb)
Winds: from the ESE (120 degrees) at 14 MPH (12 knots; 6.2 m/s)
Visibility: 6 or more miles (10+ km)
Ceiling: ceiling and visibility are OK
Clouds: unknown
Weather: no significant weather observed at this time

METAR text: ZGSZ 240900Z 11005MPS CAVOK 23/13 Q1014 NOSIG
Conditions at: ZGSZ (SHENZHEN , CN) observed 0900 UTC 24 January 2021
Temperature: 23.0°C (73°F)
Dewpoint: 13.0°C (55°F) [RH = 53%]
Pressure (altimeter): 29.94 inches Hg (1014.0 mb)
Winds: from the ESE (110 degrees) at 12 MPH (10 knots; 5.1 m/s)
Visibility: 6 or more miles (10+ km)
Ceiling: ceiling and visibility are OK
Clouds: unknown
Weather: no significant weather observed at this time

METAR text: ZGSZ 240800Z 20004MPS 160V220 CAVOK 21/15 Q1014 BECMG AT0920 13005MPS
Conditions at: ZGSZ (SHENZHEN , CN) observed 0800 UTC 24 January 2021
Temperature: 21.0°C (70°F)
Dewpoint: 15.0°C (59°F) [RH = 69%]
Pressure (altimeter): 29.94 inches Hg (1014.0 mb)
Winds: from the SSW (200 degrees) at 9 MPH (8 knots; 4.1 m/s)
Visibility: 6 or more miles (10+ km)
Ceiling: ceiling and visibility are OK
Clouds: unknown
Weather: no significant weather observed at this time

METAR text: ZGSZ 240700Z 20005MPS CAVOK 21/15 Q1014 BECMG AT0840 14005MPS
Conditions at: ZGSZ (SHENZHEN , CN) observed 0700 UTC 24 January 2021
Temperature: 21.0°C (70°F)
Dewpoint: 15.0°C (59°F) [RH = 69%]
Pressure (altimeter): 29.94 inches Hg (1014.0 mb)
Winds: from the SSW (200 degrees) at 12 MPH (10 knots; 5.1 m/s)
Visibility: 6 or more miles (10+ km)
Ceiling: ceiling and visibility are OK
Clouds: unknown
Weather: no significant weather observed at this time

METAR text: ZGSZ 240600Z VRB04MPS CAVOK 24/13 Q1015 BECMG AT0630 12005MPS
Conditions at: ZGSZ (SHENZHEN , CN) observed 0600 UTC 24 January 2021
Temperature: 24.0°C (75°F)
Dewpoint: 13.0°C (55°F) [RH = 50%]
Pressure (altimeter): 29.97 inches Hg (1015.0 mb)
Winds: variable direction winds at 9 MPH (8 knots; 4.1 m/s)
Visibility: 6 or more miles (10+ km)
Ceiling: ceiling and visibility are OK
Clouds: unknown
Weather: no significant weather observed at this time

METAR text: ZGSZ 240500Z 11005MPS 060V140 CAVOK 23/14 Q1016 NOSIG
Conditions at: ZGSZ (SHENZHEN , CN) observed 0500 UTC 24 January 2021
Temperature: 23.0°C (73°F)
Dewpoint: 14.0°C (57°F) [RH = 57%]
Pressure (altimeter): 30.00 inches Hg (1016.0 mb)
Winds: from the ESE (110 degrees) at 12 MPH (10 knots; 5.1 m/s)
Visibility: 6 or more miles (10+ km)
Ceiling: ceiling and visibility are OK
Clouds: unknown
Weather: no significant weather observed at this time

METAR text: ZGSZ 240400Z 12007MPS CAVOK 22/14 Q1017 NOSIG
Conditions at: ZGSZ (SHENZHEN , CN) observed 0400 UTC 24 January 2021
Temperature: 22.0°C (72°F)
Dewpoint: 14.0°C (57°F) [RH = 60%]
Pressure (altimeter): 30.03 inches Hg (1017.0 mb)
Winds: from the ESE (120 degrees) at 16 MPH (14 knots; 7.2 m/s)
Visibility: 6 or more miles (10+ km)
Ceiling: ceiling and visibility are OK
Clouds: unknown
Weather: no significant weather observed at this time

METAR text: ZGSZ 240300Z 12007MPS 9000 FEW033 BKN046 22/15 Q1018 NOSIG
Conditions at: ZGSZ (SHENZHEN , CN) observed 0300 UTC 24 January 2021
Temperature: 22.0°C (72°F)
Dewpoint: 15.0°C (59°F) [RH = 65%]
Pressure (altimeter): 30.06 inches Hg (1018.0 mb)
Winds: from the ESE (120 degrees) at 16 MPH (14 knots; 7.2 m/s)
Visibility: 6 miles ( 9 km)
Ceiling: 4600 feet AGL
Clouds: few clouds at 3300 feet AGL
broken clouds at 4600 feet AGL
Weather: no significant weather observed at this time

METAR text: ZGSZ 240200Z 12005MPS 6000 BKN046 20/14 Q1019 NOSIG
Conditions at: ZGSZ (SHENZHEN , CN) observed 0200 UTC 24 January 2021
Temperature: 20.0°C (68°F)
Dewpoint: 14.0°C (57°F) [RH = 68%]
Pressure (altimeter): 30.09 inches Hg (1019.0 mb)
Winds: from the ESE (120 degrees) at 12 MPH (10 knots; 5.1 m/s)
Visibility: 4 miles ( 6 km)
Ceiling: 4600 feet AGL
Clouds: broken clouds at 4600 feet AGL
Weather: no significant weather observed at this time

METAR text: ZGSZ 240100Z 08004MPS 5000 HZ BKN046 19/14 Q1018 NOSIG
Conditions at: ZGSZ (SHENZHEN , CN) observed 0100 UTC 24 January 2021
Temperature: 19.0°C (66°F)
Dewpoint: 14.0°C (57°F) [RH = 73%]
Pressure (altimeter): 30.06 inches Hg (1018.0 mb)
Winds: from the E (80 degrees) at 9 MPH (8 knots; 4.1 m/s)
Visibility: 3 miles ( 5 km)
Ceiling: 4600 feet AGL
Clouds: broken clouds at 4600 feet AGL
Weather: HZ  (haze)

METAR text: ZGSZ 240000Z 03002MPS 360V140 5000 HZ BKN040 19/14 Q1018 BECMG AT0040 11005MPS
Conditions at: ZGSZ (SHENZHEN , CN) observed 0000 UTC 24 January 2021
Temperature: 19.0°C (66°F)
Dewpoint: 14.0°C (57°F) [RH = 73%]
Pressure (altimeter): 30.06 inches Hg (1018.0 mb)
Winds: from the NNE (30 degrees) at 5 MPH (4 knots; 2.1 m/s)
Visibility: 3 miles ( 5 km)
Ceiling: 4000 feet AGL
Clouds: broken clouds at 4000 feet AGL
Weather: HZ  (haze)

METAR text: ZGSZ 232300Z 03003MPS 340V080 6000 BKN040 18/13 Q1017 BECMG AT0030 11005MPS
Conditions at: ZGSZ (SHENZHEN , CN) observed 2300 UTC 23 January 2021
Temperature: 18.0°C (64°F)
Dewpoint: 13.0°C (55°F) [RH = 73%]
Pressure (altimeter): 30.03 inches Hg (1017.0 mb)
Winds: from the NNE (30 degrees) at 7 MPH (6 knots; 3.1 m/s)
Visibility: 4 miles ( 6 km)
Ceiling: 4000 feet AGL
Clouds: broken clouds at 4000 feet AGL
Weather: no significant weather observed at this time

METAR text: ZGSZ 232200Z 04003MPS 350V120 8000 SCT043 18/13 Q1016 NOSIG
Conditions at: ZGSZ (SHENZHEN , CN) observed 2200 UTC 23 January 2021
Temperature: 18.0°C (64°F)
Dewpoint: 13.0°C (55°F) [RH = 73%]
Pressure (altimeter): 30.00 inches Hg (1016.0 mb)
Winds: from the NE (40 degrees) at 7 MPH (6 knots; 3.1 m/s)
Visibility: 5 miles ( 8 km)
Ceiling: at least 12,000 feet AGL
Clouds: scattered clouds at 4300 feet AGL
Weather: no significant weather observed at this time

METAR text: ZGSZ 232100Z 06003MPS 360V120 9000 NSC 18/13 Q1016 NOSIG
Conditions at: ZGSZ (SHENZHEN , CN) observed 2100 UTC 23 January 2021
Temperature: 18.0°C (64°F)
Dewpoint: 13.0°C (55°F) [RH = 73%]
Pressure (altimeter): 30.00 inches Hg (1016.0 mb)
Winds: from the ENE (60 degrees) at 7 MPH (6 knots; 3.1 m/s)
Visibility: 6 miles ( 9 km)
Ceiling: at least 12,000 feet AGL
Clouds: sky clear below 12,000 feet AGL
Weather: no significant weather observed at this time

METAR text: ZGSZ 232000Z 05003MPS 020V090 6000 NSC 18/15 Q1016 NOSIG
Conditions at: ZGSZ (SHENZHEN , CN) observed 2000 UTC 23 January 2021
Temperature: 18.0°C (64°F)
Dewpoint: 15.0°C (59°F) [RH = 83%]
Pressure (altimeter): 30.00 inches Hg (1016.0 mb)
Winds: from the NE (50 degrees) at 7 MPH (6 knots; 3.1 m/s)
Visibility: 4 miles ( 6 km)
Ceiling: at least 12,000 feet AGL
Clouds: sky clear below 12,000 feet AGL
Weather: no significant weather observed at this time

METAR text: ZGSZ 231900Z VRB01MPS 2800 BR NSC 16/15 Q1016 BECMG AT1940 4000
Conditions at: ZGSZ (SHENZHEN , CN) observed 1900 UTC 23 January 2021
Temperature: 16.0°C (61°F)
Dewpoint: 15.0°C (59°F) [RH = 94%]
Pressure (altimeter): 30.00 inches Hg (1016.0 mb)
Winds: variable direction winds at 2 MPH (2 knots; 1.0 m/s)
Visibility: 1.74 miles (2.80 km)
Ceiling: at least 12,000 feet AGL
Clouds: sky clear below 12,000 feet AGL
Weather: BR  (mist)

METAR text: ZGSZ 231800Z 19001MPS 3500 BR NSC 17/16 Q1016 BECMG AT1840 2800
Conditions at: ZGSZ (SHENZHEN , CN) observed 1800 UTC 23 January 2021
Temperature: 17.0°C (63°F)
Dewpoint: 16.0°C (61°F) [RH = 94%]
Pressure (altimeter): 30.00 inches Hg (1016.0 mb)
Winds: from the S (190 degrees) at 2 MPH (2 knots; 1.0 m/s)
Visibility: 2.17 miles (3.49 km)
Ceiling: at least 12,000 feet AGL
Clouds: sky clear below 12,000 feet AGL
Weather: BR  (mist)

METAR text: ZGSZ 231700Z 18001MPS 3500 BR NSC 17/16 Q1015 BECMG AT1840 2800
Conditions at: ZGSZ (SHENZHEN , CN) observed 1700 UTC 23 January 2021
Temperature: 17.0°C (63°F)
Dewpoint: 16.0°C (61°F) [RH = 94%]
Pressure (altimeter): 29.97 inches Hg (1015.0 mb)
Winds: from the S (180 degrees) at 2 MPH (2 knots; 1.0 m/s)
Visibility: 2.17 miles (3.49 km)
Ceiling: at least 12,000 feet AGL
Clouds: sky clear below 12,000 feet AGL
Weather: BR  (mist)

METAR text: ZGSZ 231600Z 16002MPS 4000 BR NSC 17/15 Q1015 NOSIG
Conditions at: ZGSZ (SHENZHEN , CN) observed 1600 UTC 23 January 2021
Temperature: 17.0°C (63°F)
Dewpoint: 15.0°C (59°F) [RH = 88%]
Pressure (altimeter): 29.97 inches Hg (1015.0 mb)
Winds: from the SSE (160 degrees) at 5 MPH (4 knots; 2.1 m/s)
Visibility: 2.49 miles (4.01 km)
Ceiling: at least 12,000 feet AGL
Clouds: sky clear below 12,000 feet AGL
Weather: BR  (mist)

METAR text: ZGSZ 231500Z VRB01MPS 3500 BR NSC 18/16 Q1015 NOSIG
Conditions at: ZGSZ (SHENZHEN , CN) observed 1500 UTC 23 January 2021
Temperature: 18.0°C (64°F)
Dewpoint: 16.0°C (61°F) [RH = 88%]
Pressure (altimeter): 29.97 inches Hg (1015.0 mb)
Winds: variable direction winds at 2 MPH (2 knots; 1.0 m/s)
Visibility: 2.17 miles (3.49 km)
Ceiling: at least 12,000 feet AGL
Clouds: sky clear below 12,000 feet AGL
Weather: BR  (mist)

METAR text: ZGSZ 231400Z 20002MPS 5000 BR NSC 18/16 Q1014 NOSIG
Conditions at: ZGSZ (SHENZHEN , CN) observed 1400 UTC 23 January 2021
Temperature: 18.0°C (64°F)
Dewpoint: 16.0°C (61°F) [RH = 88%]
Pressure (altimeter): 29.94 inches Hg (1014.0 mb)
Winds: from the SSW (200 degrees) at 5 MPH (4 knots; 2.1 m/s)
Visibility: 3 miles ( 5 km)
Ceiling: at least 12,000 feet AGL
Clouds: sky clear below 12,000 feet AGL
Weather: BR  (mist)

METAR text: ZGSZ 231300Z 16003MPS 7000 NSC 19/15 Q1014 NOSIG
Conditions at: ZGSZ (SHENZHEN , CN) observed 1300 UTC 23 January 2021
Temperature: 19.0°C (66°F)
Dewpoint: 15.0°C (59°F) [RH = 78%]
Pressure (altimeter): 29.94 inches Hg (1014.0 mb)
Winds: from the SSE (160 degrees) at 7 MPH (6 knots; 3.1 m/s)
Visibility: 4 miles ( 7 km)
Ceiling: at least 12,000 feet AGL
Clouds: sky clear below 12,000 feet AGL
Weather: no significant weather observed at this time

METAR text: ZGSZ 231200Z 29002MPS 9000 NSC 19/14 Q1014 NOSIG
Conditions at: ZGSZ (SHENZHEN , CN) observed 1200 UTC 23 January 2021
Temperature: 19.0°C (66°F)
Dewpoint: 14.0°C (57°F) [RH = 73%]
Pressure (altimeter): 29.94 inches Hg (1014.0 mb)
Winds: from the WNW (290 degrees) at 5 MPH (4 knots; 2.1 m/s)
Visibility: 6 miles ( 9 km)
Ceiling: at least 12,000 feet AGL
Clouds: sky clear below 12,000 feet AGL
Weather: no significant weather observed at this time

METAR text: ZGSZ 231100Z 31002MPS 9000 NSC 19/13 Q1013 NOSIG
Conditions at: ZGSZ (SHENZHEN , CN) observed 1100 UTC 23 January 2021
Temperature: 19.0°C (66°F)
Dewpoint: 13.0°C (55°F) [RH = 68%]
Pressure (altimeter): 29.91 inches Hg (1013.0 mb)
Winds: from the NW (310 degrees) at 5 MPH (4 knots; 2.1 m/s)
Visibility: 6 miles ( 9 km)
Ceiling: at least 12,000 feet AGL
Clouds: sky clear below 12,000 feet AGL
Weather: no significant weather observed at this time

METAR text: ZGSZ 231000Z 31003MPS 8000 NSC 21/14 Q1013 NOSIG
Conditions at: ZGSZ (SHENZHEN , CN) observed 1000 UTC 23 January 2021
Temperature: 21.0°C (70°F)
Dewpoint: 14.0°C (57°F) [RH = 64%]
Pressure (altimeter): 29.91 inches Hg (1013.0 mb)
Winds: from the NW (310 degrees) at 7 MPH (6 knots; 3.1 m/s)
Visibility: 5 miles ( 8 km)
Ceiling: at least 12,000 feet AGL
Clouds: sky clear below 12,000 feet AGL
Weather: no significant weather observed at this time

METAR text: ZGSZ 230900Z 30005MPS 8000 NSC 22/14 Q1012 NOSIG
Conditions at: ZGSZ (SHENZHEN , CN) observed 0900 UTC 23 January 2021
Temperature: 22.0°C (72°F)
Dewpoint: 14.0°C (57°F) [RH = 60%]
Pressure (altimeter): 29.88 inches Hg (1012.0 mb)
Winds: from the WNW (300 degrees) at 12 MPH (10 knots; 5.1 m/s)
Visibility: 5 miles ( 8 km)
Ceiling: at least 12,000 feet AGL
Clouds: sky clear below 12,000 feet AGL
Weather: no significant weather observed at this time

METAR text: ZGSZ 230800Z 29004MPS 8000 NSC 22/14 Q1012 NOSIG
Conditions at: ZGSZ (SHENZHEN , CN) observed 0800 UTC 23 January 2021
Temperature: 22.0°C (72°F)
Dewpoint: 14.0°C (57°F) [RH = 60%]
Pressure (altimeter): 29.88 inches Hg (1012.0 mb)
Winds: from the WNW (290 degrees) at 9 MPH (8 knots; 4.1 m/s)
Visibility: 5 miles ( 8 km)
Ceiling: at least 12,000 feet AGL
Clouds: sky clear below 12,000 feet AGL
Weather: no significant weather observed at this time

METAR text: ZGSZ 230700Z 29005MPS 8000 NSC 22/14 Q1012 NOSIG
Conditions at: ZGSZ (SHENZHEN , CN) observed 0700 UTC 23 January 2021
Temperature: 22.0°C (72°F)
Dewpoint: 14.0°C (57°F) [RH = 60%]
Pressure (altimeter): 29.88 inches Hg (1012.0 mb)
Winds: from the WNW (290 degrees) at 12 MPH (10 knots; 5.1 m/s)
Visibility: 5 miles ( 8 km)
Ceiling: at least 12,000 feet AGL
Clouds: sky clear below 12,000 feet AGL
Weather: no significant weather observed at this time

METAR text: ZGSZ 230600Z 30006MPS 8000 NSC 22/14 Q1013 NOSIG
Conditions at: ZGSZ (SHENZHEN , CN) observed 0600 UTC 23 January 2021
Temperature: 22.0°C (72°F)
Dewpoint: 14.0°C (57°F) [RH = 60%]
Pressure (altimeter): 29.91 inches Hg (1013.0 mb)
Winds: from the WNW (300 degrees) at 14 MPH (12 knots; 6.2 m/s)
Visibility: 5 miles ( 8 km)
Ceiling: at least 12,000 feet AGL
Clouds: sky clear below 12,000 feet AGL
Weather: no significant weather observed at this time

METAR text: ZGSZ 230500Z 30006MPS CAVOK 22/15 Q1013 NOSIG
Conditions at: ZGSZ (SHENZHEN , CN) observed 0500 UTC 23 January 2021
Temperature: 22.0°C (72°F)
Dewpoint: 15.0°C (59°F) [RH = 65%]
Pressure (altimeter): 29.91 inches Hg (1013.0 mb)
Winds: from the WNW (300 degrees) at 14 MPH (12 knots; 6.2 m/s)
Visibility: 6 or more miles (10+ km)
Ceiling: ceiling and visibility are OK
Clouds: unknown
Weather: no significant weather observed at this time

METAR text: ZGSZ 230400Z 35005MPS CAVOK 24/13 Q1014 NOSIG
Conditions at: ZGSZ (SHENZHEN , CN) observed 0400 UTC 23 January 2021
Temperature: 24.0°C (75°F)
Dewpoint: 13.0°C (55°F) [RH = 50%]
Pressure (altimeter): 29.94 inches Hg (1014.0 mb)
Winds: from the N (350 degrees) at 12 MPH (10 knots; 5.1 m/s)
Visibility: 6 or more miles (10+ km)
Ceiling: ceiling and visibility are OK
Clouds: unknown
Weather: no significant weather observed at this time

METAR text: ZGSZ 230300Z 05004MPS 010V080 CAVOK 23/13 Q1015 NOSIG
Conditions at: ZGSZ (SHENZHEN , CN) observed 0300 UTC 23 January 2021
Temperature: 23.0°C (73°F)
Dewpoint: 13.0°C (55°F) [RH = 53%]
Pressure (altimeter): 29.97 inches Hg (1015.0 mb)
Winds: from the NE (50 degrees) at 9 MPH (8 knots; 4.1 m/s)
Visibility: 6 or more miles (10+ km)
Ceiling: ceiling and visibility are OK
Clouds: unknown
Weather: no significant weather observed at this time

METAR text: ZGSZ 230200Z 03006MPS 360V060 CAVOK 21/13 Q1016 NOSIG
Conditions at: ZGSZ (SHENZHEN , CN) observed 0200 UTC 23 January 2021
Temperature: 21.0°C (70°F)
Dewpoint: 13.0°C (55°F) [RH = 60%]
Pressure (altimeter): 30.00 inches Hg (1016.0 mb)
Winds: from the NNE (30 degrees) at 14 MPH (12 knots; 6.2 m/s)
Visibility: 6 or more miles (10+ km)
Ceiling: ceiling and visibility are OK
Clouds: unknown
Weather: no significant weather observed at this time

METAR text: ZGSZ 230100Z 03004MPS CAVOK 19/15 Q1016 NOSIG
Conditions at: ZGSZ (SHENZHEN , CN) observed 0100 UTC 23 January 2021
Temperature: 19.0°C (66°F)
Dewpoint: 15.0°C (59°F) [RH = 78%]
Pressure (altimeter): 30.00 inches Hg (1016.0 mb)
Winds: from the NNE (30 degrees) at 9 MPH (8 knots; 4.1 m/s)
Visibility: 6 or more miles (10+ km)
Ceiling: ceiling and visibility are OK
Clouds: unknown
Weather: no significant weather observed at this time

METAR text: ZGSZ 230000Z 35004MPS CAVOK 18/15 Q1015 NOSIG
Conditions at: ZGSZ (SHENZHEN , CN) observed 0000 UTC 23 January 2021
Temperature: 18.0°C (64°F)
Dewpoint: 15.0°C (59°F) [RH = 83%]
Pressure (altimeter): 29.97 inches Hg (1015.0 mb)
Winds: from the N (350 degrees) at 9 MPH (8 knots; 4.1 m/s)
Visibility: 6 or more miles (10+ km)
Ceiling: ceiling and visibility are OK
Clouds: unknown
Weather: no significant weather observed at this time

Forecast for: ZGSZ (SHENZHEN , CN)
Text: TAF ZGSZ 240909Z 2412/2512 10004MPS 8000 SCT040 TX23/2506Z TN17/2422Z
Forecast period: 1200 UTC 24 January 2021 to 0400 UTC 25 January 2021
Forecast type: FROM: standard forecast or significant change
Winds: from the E (100 degrees) at 9 MPH (8 knots; 4.1 m/s)
Visibility: 5 miles (8 km)
Ceiling: at least 12,000 feet AGL
Clouds: scattered clouds at 4000 feet AGL
Weather: no significant weather forecast for this period
Text: BECMG 2504/2505 18004MPS
Forecast period: 0400 to 1200 UTC 25 January 2021
Forecast type: BECOMING: Conditions expected to become as follows by 0500 UTC 25 January 2021
Winds: from the S (180 degrees) at 9 MPH (8 knots; 4.1 m/s)
Visibility: 5 miles (8 km)
Ceiling: at least 12,000 feet AGL
Clouds: scattered clouds at 4000 feet AGL
Weather: no significant weather forecast for this period